PWSweather.com
Personal Weather Stations
Station Observations
SEVANL01
SevillaES 41004

SevillaES 41004

Lat: 37.383633, Lon: -5.985787

Elevation: 19.685

Station Type: Davis Vantage Pro2

Latest ConditionsUpdated 8:00:00 AM GMT+01:01 Saturday, Jan 18, 2020
Currently Today's Max Today's Min Today's Average
Temperature 50.3°F10.2°C 54.7°F12.6°C 50.3°F10.2°C 52.2°F11.2°C
Dew Point 47.2°F8.4°C 50.0°F10.0°C 47.0°F8.3°C 48.5°F9.2°C
Winds 1.9 mph NE3.1 kmh NE 3.0 mph -4.8 kmh - - 0.9 mph 1.4 kmh
Wind Gusts 3.0 mph4.8 kmh 6.0 mph9.7 kmh - -
Humidity 89% 89% 84% 87%
Pressure 30.42 in1030.1 mb 30.46 in1031.5 mb 30.39 in1029.1 mb -
Hour Temp Dew Point Humidity Winds Wind Gusts Pressure Precip Precip Rate Daily Precip Total
08:00 AM 50.3°F10.2°C 47.2°F8.4°C 89% 1.9 mph NE3.1 kmh NE 3.0 mph4.8 kmh 30.42 in1030.1 mb 0.00 in0.0 mm 0.00 in0.0 mm 0.00 in0.0 mm
07:40 AM 50.4°F10.2°C 47.0°F8.3°C 88% 3.0 mph NNW4.8 kmh NNW 5.0 mph8.0 kmh 30.42 in1030.1 mb 0.00 in0.0 mm 0.00 in0.0 mm 0.00 in0.0 mm
07:20 AM 51.1°F10.6°C 47.4°F8.6°C 87% 2.0 mph NNW3.2 kmh NNW 5.0 mph8.0 kmh 30.41 in1029.8 mb 0.00 in0.0 mm 0.00 in0.0 mm 0.00 in0.0 mm
07:00 AM 51.6°F10.9°C 48.2°F9.0°C 88% Calm Calm 3.0 mph4.8 kmh 30.40 in1029.5 mb 0.00 in0.0 mm 0.00 in0.0 mm 0.00 in0.0 mm
06:40 AM 51.3°F10.7°C 47.9°F8.8°C 88% 0.5 mph 0.8 kmh -- 30.39 in1029.1 mb 0.00 in0.0 mm 0.00 in0.0 mm 0.00 in0.0 mm
06:20 AM 51.5°F10.8°C 48.1°F8.9°C 88% 0.9 mph NNW1.4 kmh NNW 3.0 mph4.8 kmh 30.40 in1029.5 mb 0.00 in0.0 mm 0.00 in0.0 mm 0.00 in0.0 mm
06:00 AM 51.6°F10.9°C 48.2°F9.0°C 88% Calm Calm 1.0 mph1.6 kmh 30.39 in1029.1 mb 0.00 in0.0 mm 0.00 in0.0 mm 0.00 in0.0 mm
05:40 AM 51.5°F10.8°C 48.1°F8.9°C 88% 1.9 mph E3.1 kmh E 6.0 mph9.7 kmh 30.39 in1029.1 mb 0.00 in0.0 mm 0.00 in0.0 mm 0.00 in0.0 mm
05:20 AM 51.4°F10.8°C 48.0°F8.9°C 88% Calm Calm 3.0 mph4.8 kmh 30.40 in1029.5 mb 0.00 in0.0 mm 0.00 in0.0 mm 0.00 in0.0 mm
05:00 AM 51.7°F10.9°C 48.0°F8.9°C 87% Calm Calm 2.0 mph3.2 kmh 30.41 in1029.8 mb 0.00 in0.0 mm 0.00 in0.0 mm 0.00 in0.0 mm
04:40 AM 52.0°F11.1°C 48.6°F9.2°C 88% 0.1 mph NNE0.2 kmh NNE 1.0 mph1.6 kmh 30.41 in1029.8 mb 0.00 in0.0 mm 0.00 in0.0 mm 0.00 in0.0 mm
04:20 AM 51.9°F11.1°C 48.5°F9.2°C 88% 0.5 mph N0.8 kmh N 3.0 mph4.8 kmh 30.42 in1030.1 mb 0.00 in0.0 mm 0.00 in0.0 mm 0.00 in0.0 mm
04:00 AM 51.8°F11.0°C 48.4°F9.1°C 88% Calm Calm 2.0 mph3.2 kmh 30.42 in1030.1 mb 0.00 in0.0 mm 0.00 in0.0 mm 0.00 in0.0 mm
03:40 AM 51.7°F10.9°C 48.3°F9.1°C 88% 0.7 mph NNW1.1 kmh NNW 2.0 mph3.2 kmh 30.43 in1030.5 mb 0.00 in0.0 mm 0.00 in0.0 mm 0.00 in0.0 mm
03:20 AM 51.9°F11.1°C 48.2°F9.0°C 87% 2.0 mph N3.2 kmh N 4.0 mph6.4 kmh 30.43 in1030.5 mb 0.00 in0.0 mm 0.00 in0.0 mm 0.00 in0.0 mm
03:00 AM 52.3°F11.3°C 48.5°F9.2°C 87% 1.9 mph NNE3.1 kmh NNE 4.0 mph6.4 kmh 30.43 in1030.5 mb 0.00 in0.0 mm 0.00 in0.0 mm 0.00 in0.0 mm
02:40 AM 53.2°F11.8°C 49.1°F9.5°C 86% 1.0 mph NNE1.6 kmh NNE 2.0 mph3.2 kmh 30.44 in1030.8 mb 0.00 in0.0 mm 0.00 in0.0 mm 0.00 in0.0 mm
02:20 AM 53.2°F11.8°C 49.1°F9.5°C 86% 1.0 mph NE1.6 kmh NE 2.0 mph3.2 kmh 30.44 in1030.8 mb 0.00 in0.0 mm 0.00 in0.0 mm 0.00 in0.0 mm
02:00 AM 53.2°F11.8°C 49.1°F9.5°C 86% 1.1 mph NE1.8 kmh NE 3.0 mph4.8 kmh 30.45 in1031.2 mb 0.00 in0.0 mm 0.00 in0.0 mm 0.00 in0.0 mm
01:40 AM 53.2°F11.8°C 49.4°F9.7°C 87% 0.6 mph N1.0 kmh N 3.0 mph4.8 kmh 30.45 in1031.2 mb 0.00 in0.0 mm 0.00 in0.0 mm 0.00 in0.0 mm
01:20 AM 53.3°F11.8°C 49.2°F9.6°C 86% Calm Calm 1.0 mph1.6 kmh 30.45 in1031.2 mb 0.00 in0.0 mm 0.00 in0.0 mm 0.00 in0.0 mm
01:00 AM 53.4°F11.9°C 49.3°F9.6°C 86% 1.0 mph NNW1.6 kmh NNW 2.0 mph3.2 kmh 30.46 in1031.5 mb 0.00 in0.0 mm 0.00 in0.0 mm 0.00 in0.0 mm
12:40 AM 53.4°F11.9°C 49.3°F9.6°C 86% 1.3 mph NNW2.1 kmh NNW 3.0 mph4.8 kmh 30.46 in1031.5 mb 0.00 in0.0 mm 0.00 in0.0 mm 0.00 in0.0 mm
12:20 AM 54.2°F12.3°C 49.8°F9.9°C 85% 1.0 mph NNW1.6 kmh NNW 4.0 mph6.4 kmh 30.46 in1031.5 mb 0.00 in0.0 mm 0.00 in0.0 mm 0.00 in0.0 mm
12:00 AM 54.7°F12.6°C 50.0°F10.0°C 84% 1.0 mph NNW1.6 kmh NNW 3.0 mph4.8 kmh 30.46 in1031.5 mb 0.00 in0.0 mm 0.00 in0.0 mm 0.00 in0.0 mm